Terminal Aerodrome Forecast
Issued by NWS

Home | Current Version | Previous Version | Text Only | Print | Product List | Glossary On
Versions: 1 2 3 4 5 6 7 8 9 10 11 12 13 14 15 16 17 18 19
794
FTUS41 KCAR 281121
TAFBHB
TAF
KBHB 281121Z 2812/2912 VRB03KT 1 1/2SM BR OVC003
     FM281330 23005KT P6SM BKN050
     FM282300 VRB03KT P6SM BKN250
      AMD NOT SKED=

USA.gov is the U.S. government's official web portal to all federal, state and local government web resources and services.